sensor_id;sensor_type;location;lat;lon;timestamp;P1;durP1;ratioP1;P2;durP2;ratioP2
51925;SDS011;37952;51.938;15.480;2023-07-20T00:00:39;0.70;;;0.40;;
51925;SDS011;37952;51.938;15.480;2023-07-20T00:04:02;0.50;;;0.50;;
51925;SDS011;37952;51.938;15.480;2023-07-20T00:07:05;0.70;;;0.70;;
51925;SDS011;37952;51.938;15.480;2023-07-20T00:10:08;0.90;;;0.60;;
51925;SDS011;37952;51.938;15.480;2023-07-20T00:13:11;0.60;;;0.60;;
51925;SDS011;37952;51.938;15.480;2023-07-20T00:16:14;0.80;;;0.70;;
51925;SDS011;37952;51.938;15.480;2023-07-20T00:19:17;1.50;;;0.80;;
51925;SDS011;37952;51.938;15.480;2023-07-20T00:22:20;0.80;;;0.70;;
51925;SDS011;37952;51.938;15.480;2023-07-20T00:25:23;1.40;;;1.10;;
51925;SDS011;37952;51.938;15.480;2023-07-20T00:28:27;2.20;;;0.90;;
51925;SDS011;37952;51.938;15.480;2023-07-20T00:31:30;1.00;;;0.70;;
51925;SDS011;37952;51.938;15.480;2023-07-20T00:34:33;0.90;;;0.90;;
51925;SDS011;37952;51.938;15.480;2023-07-20T00:37:36;1.70;;;0.50;;
51925;SDS011;37952;51.938;15.480;2023-07-20T00:40:39;0.90;;;0.90;;
51925;SDS011;37952;51.938;15.480;2023-07-20T00:43:42;2.70;;;1.00;;
51925;SDS011;37952;51.938;15.480;2023-07-20T00:46:45;2.40;;;0.70;;
51925;SDS011;37952;51.938;15.480;2023-07-20T00:49:49;1.10;;;0.70;;
51925;SDS011;37952;51.938;15.480;2023-07-20T00:52:56;0.90;;;0.70;;
51925;SDS011;37952;51.938;15.480;2023-07-20T00:56:00;1.00;;;0.90;;
51925;SDS011;37952;51.938;15.480;2023-07-20T00:59:03;0.80;;;0.70;;
51925;SDS011;37952;51.938;15.480;2023-07-20T01:02:07;0.50;;;0.50;;
51925;SDS011;37952;51.938;15.480;2023-07-20T01:05:10;0.80;;;0.50;;
51925;SDS011;37952;51.938;15.480;2023-07-20T01:08:24;0.40;;;0.40;;
51925;SDS011;37952;51.938;15.480;2023-07-20T01:11:38;0.50;;;0.50;;
51925;SDS011;37952;51.938;15.480;2023-07-20T01:15:01;0.40;;;0.40;;
51925;SDS011;37952;51.938;15.480;2023-07-20T01:18:05;0.40;;;0.40;;
51925;SDS011;37952;51.938;15.480;2023-07-20T01:21:09;0.40;;;0.40;;
51925;SDS011;37952;51.938;15.480;2023-07-20T01:31:32;0.50;;;0.50;;
51925;SDS011;37952;51.938;15.480;2023-07-20T01:34:37;0.50;;;0.40;;
51925;SDS011;37952;51.938;15.480;2023-07-20T01:37:43;0.50;;;0.50;;
51925;SDS011;37952;51.938;15.480;2023-07-20T01:40:49;0.50;;;0.50;;
51925;SDS011;37952;51.938;15.480;2023-07-20T01:43:53;0.70;;;0.70;;
51925;SDS011;37952;51.938;15.480;2023-07-20T01:46:59;0.80;;;0.50;;
51925;SDS011;37952;51.938;15.480;2023-07-20T01:50:02;1.00;;;0.70;;
51925;SDS011;37952;51.938;15.480;2023-07-20T01:53:05;0.50;;;0.50;;
51925;SDS011;37952;51.938;15.480;2023-07-20T01:56:08;1.00;;;0.70;;
51925;SDS011;37952;51.938;15.480;2023-07-20T01:59:11;0.50;;;0.50;;
51925;SDS011;37952;51.938;15.480;2023-07-20T02:02:14;0.60;;;0.50;;
51925;SDS011;37952;51.938;15.480;2023-07-20T02:05:17;1.10;;;0.70;;
51925;SDS011;37952;51.938;15.480;2023-07-20T02:08:20;0.80;;;0.80;;
51925;SDS011;37952;51.938;15.480;2023-07-20T02:11:23;0.60;;;0.60;;
51925;SDS011;37952;51.938;15.480;2023-07-20T02:14:26;0.80;;;0.70;;
51925;SDS011;37952;51.938;15.480;2023-07-20T02:17:29;1.10;;;0.80;;
51925;SDS011;37952;51.938;15.480;2023-07-20T02:20:31;0.80;;;0.80;;
51925;SDS011;37952;51.938;15.480;2023-07-20T02:23:34;1.10;;;1.10;;
51925;SDS011;37952;51.938;15.480;2023-07-20T02:26:37;2.00;;;1.30;;
51925;SDS011;37952;51.938;15.480;2023-07-20T02:29:40;0.90;;;0.90;;
51925;SDS011;37952;51.938;15.480;2023-07-20T02:32:43;1.10;;;1.00;;
51925;SDS011;37952;51.938;15.480;2023-07-20T02:35:51;2.30;;;1.40;;
51925;SDS011;37952;51.938;15.480;2023-07-20T02:38:54;1.40;;;1.30;;
51925;SDS011;37952;51.938;15.480;2023-07-20T02:41:57;1.30;;;1.20;;
51925;SDS011;37952;51.938;15.480;2023-07-20T02:45:01;1.20;;;1.20;;
51925;SDS011;37952;51.938;15.480;2023-07-20T02:48:04;1.60;;;1.10;;
51925;SDS011;37952;51.938;15.480;2023-07-20T02:51:10;1.90;;;1.60;;
51925;SDS011;37952;51.938;15.480;2023-07-20T02:54:14;1.70;;;1.60;;
51925;SDS011;37952;51.938;15.480;2023-07-20T02:57:18;1.60;;;1.40;;
51925;SDS011;37952;51.938;15.480;2023-07-20T03:00:21;1.90;;;1.40;;
51925;SDS011;37952;51.938;15.480;2023-07-20T03:03:25;1.90;;;1.60;;
51925;SDS011;37952;51.938;15.480;2023-07-20T03:06:28;1.60;;;1.50;;
51925;SDS011;37952;51.938;15.480;2023-07-20T03:09:31;2.70;;;1.60;;
51925;SDS011;37952;51.938;15.480;2023-07-20T03:12:34;2.20;;;1.70;;
51925;SDS011;37952;51.938;15.480;2023-07-20T03:15:37;4.20;;;1.40;;
51925;SDS011;37952;51.938;15.480;2023-07-20T03:18:39;3.20;;;1.90;;
51925;SDS011;37952;51.938;15.480;2023-07-20T03:21:42;1.70;;;1.60;;
51925;SDS011;37952;51.938;15.480;2023-07-20T03:24:52;2.00;;;1.90;;
51925;SDS011;37952;51.938;15.480;2023-07-20T03:27:55;1.90;;;1.80;;
51925;SDS011;37952;51.938;15.480;2023-07-20T03:30:58;2.00;;;1.70;;
51925;SDS011;37952;51.938;15.480;2023-07-20T03:34:01;3.50;;;1.80;;
51925;SDS011;37952;51.938;15.480;2023-07-20T03:37:04;1.90;;;1.80;;
51925;SDS011;37952;51.938;15.480;2023-07-20T03:40:07;2.00;;;1.90;;
51925;SDS011;37952;51.938;15.480;2023-07-20T03:43:10;2.10;;;2.00;;
51925;SDS011;37952;51.938;15.480;2023-07-20T03:46:13;2.50;;;2.20;;
51925;SDS011;37952;51.938;15.480;2023-07-20T03:49:16;1.90;;;1.70;;
51925;SDS011;37952;51.938;15.480;2023-07-20T03:52:19;5.60;;;2.10;;
51925;SDS011;37952;51.938;15.480;2023-07-20T03:55:22;2.10;;;2.00;;
51925;SDS011;37952;51.938;15.480;2023-07-20T03:58:24;1.60;;;1.50;;
51925;SDS011;37952;51.938;15.480;2023-07-20T04:01:27;2.00;;;1.80;;
51925;SDS011;37952;51.938;15.480;2023-07-20T04:04:30;2.50;;;2.00;;
51925;SDS011;37952;51.938;15.480;2023-07-20T04:07:32;1.80;;;1.70;;
51925;SDS011;37952;51.938;15.480;2023-07-20T04:10:35;2.40;;;2.20;;
51925;SDS011;37952;51.938;15.480;2023-07-20T04:13:38;2.00;;;1.80;;
51925;SDS011;37952;51.938;15.480;2023-07-20T04:16:41;2.00;;;1.90;;
51925;SDS011;37952;51.938;15.480;2023-07-20T04:19:44;4.70;;;1.80;;
51925;SDS011;37952;51.938;15.480;2023-07-20T04:22:47;4.70;;;2.10;;
51925;SDS011;37952;51.938;15.480;2023-07-20T04:25:50;2.10;;;1.90;;
51925;SDS011;37952;51.938;15.480;2023-07-20T04:28:54;2.30;;;2.20;;
51925;SDS011;37952;51.938;15.480;2023-07-20T04:31:57;3.50;;;2.10;;
51925;SDS011;37952;51.938;15.480;2023-07-20T04:35:00;2.90;;;1.80;;
51925;SDS011;37952;51.938;15.480;2023-07-20T04:38:02;2.70;;;2.20;;
51925;SDS011;37952;51.938;15.480;2023-07-20T04:41:05;2.70;;;2.50;;
51925;SDS011;37952;51.938;15.480;2023-07-20T04:44:08;6.50;;;2.40;;
51925;SDS011;37952;51.938;15.480;2023-07-20T04:47:11;3.90;;;3.70;;
51925;SDS011;37952;51.938;15.480;2023-07-20T04:50:14;4.80;;;4.50;;
51925;SDS011;37952;51.938;15.480;2023-07-20T04:53:17;5.00;;;4.50;;
51925;SDS011;37952;51.938;15.480;2023-07-20T04:56:20;4.40;;;4.00;;
51925;SDS011;37952;51.938;15.480;2023-07-20T04:59:26;4.00;;;3.60;;
51925;SDS011;37952;51.938;15.480;2023-07-20T05:02:29;5.70;;;5.20;;
51925;SDS011;37952;51.938;15.480;2023-07-20T05:05:32;7.70;;;5.30;;
51925;SDS011;37952;51.938;15.480;2023-07-20T05:08:35;5.30;;;4.80;;
51925;SDS011;37952;51.938;15.480;2023-07-20T05:11:38;5.10;;;4.70;;
51925;SDS011;37952;51.938;15.480;2023-07-20T05:14:41;5.30;;;5.00;;
51925;SDS011;37952;51.938;15.480;2023-07-20T05:17:44;6.60;;;6.10;;
51925;SDS011;37952;51.938;15.480;2023-07-20T05:20:47;6.30;;;5.90;;
51925;SDS011;37952;51.938;15.480;2023-07-20T05:23:50;5.50;;;5.20;;
51925;SDS011;37952;51.938;15.480;2023-07-20T05:26:53;6.70;;;6.30;;
51925;SDS011;37952;51.938;15.480;2023-07-20T05:29:56;7.50;;;6.60;;
51925;SDS011;37952;51.938;15.480;2023-07-20T05:32:59;5.90;;;5.60;;
51925;SDS011;37952;51.938;15.480;2023-07-20T05:36:02;7.10;;;6.60;;
51925;SDS011;37952;51.938;15.480;2023-07-20T05:39:19;6.00;;;5.60;;
51925;SDS011;37952;51.938;15.480;2023-07-20T05:42:22;6.20;;;5.70;;
51925;SDS011;37952;51.938;15.480;2023-07-20T05:45:24;5.40;;;5.10;;
51925;SDS011;37952;51.938;15.480;2023-07-20T05:48:27;5.70;;;5.40;;
51925;SDS011;37952;51.938;15.480;2023-07-20T05:51:32;4.90;;;4.50;;
51925;SDS011;37952;51.938;15.480;2023-07-20T05:54:37;5.50;;;5.20;;
51925;SDS011;37952;51.938;15.480;2023-07-20T05:57:40;5.60;;;5.30;;
51925;SDS011;37952;51.938;15.480;2023-07-20T06:00:48;4.80;;;4.40;;
51925;SDS011;37952;51.938;15.480;2023-07-20T06:03:52;5.70;;;5.20;;
51925;SDS011;37952;51.938;15.480;2023-07-20T06:06:56;5.10;;;4.50;;
51925;SDS011;37952;51.938;15.480;2023-07-20T06:13:44;4.30;;;3.70;;
51925;SDS011;37952;51.938;15.480;2023-07-20T06:16:47;3.50;;;3.30;;
51925;SDS011;37952;51.938;15.480;2023-07-20T06:19:50;4.80;;;3.50;;
51925;SDS011;37952;51.938;15.480;2023-07-20T06:22:53;4.40;;;4.10;;
51925;SDS011;37952;51.938;15.480;2023-07-20T06:25:56;3.70;;;3.40;;
51925;SDS011;37952;51.938;15.480;2023-07-20T06:29:01;2.60;;;2.40;;
51925;SDS011;37952;51.938;15.480;2023-07-20T06:35:21;3.90;;;3.60;;
51925;SDS011;37952;51.938;15.480;2023-07-20T06:38:23;3.10;;;2.90;;
51925;SDS011;37952;51.938;15.480;2023-07-20T06:45:27;5.00;;;3.70;;
51925;SDS011;37952;51.938;15.480;2023-07-20T06:48:30;2.80;;;2.60;;
51925;SDS011;37952;51.938;15.480;2023-07-20T06:51:33;3.30;;;3.10;;
51925;SDS011;37952;51.938;15.480;2023-07-20T06:54:35;2.70;;;2.60;;
51925;SDS011;37952;51.938;15.480;2023-07-20T06:57:38;2.90;;;2.30;;
51925;SDS011;37952;51.938;15.480;2023-07-20T07:00:41;3.30;;;2.60;;
51925;SDS011;37952;51.938;15.480;2023-07-20T07:03:45;2.70;;;2.40;;
51925;SDS011;37952;51.938;15.480;2023-07-20T07:06:48;3.60;;;2.60;;
51925;SDS011;37952;51.938;15.480;2023-07-20T07:13:44;3.00;;;2.80;;
51925;SDS011;37952;51.938;15.480;2023-07-20T07:16:49;2.60;;;2.40;;
51925;SDS011;37952;51.938;15.480;2023-07-20T07:19:53;3.60;;;2.20;;
51925;SDS011;37952;51.938;15.480;2023-07-20T07:23:00;2.20;;;2.10;;
51925;SDS011;37952;51.938;15.480;2023-07-20T07:26:03;2.80;;;2.50;;
51925;SDS011;37952;51.938;15.480;2023-07-20T07:29:06;2.70;;;2.40;;
51925;SDS011;37952;51.938;15.480;2023-07-20T07:32:08;2.70;;;2.60;;
51925;SDS011;37952;51.938;15.480;2023-07-20T07:35:12;3.10;;;2.50;;
51925;SDS011;37952;51.938;15.480;2023-07-20T07:38:15;4.00;;;2.40;;
51925;SDS011;37952;51.938;15.480;2023-07-20T07:41:38;2.20;;;2.10;;
51925;SDS011;37952;51.938;15.480;2023-07-20T07:44:41;2.30;;;2.10;;
51925;SDS011;37952;51.938;15.480;2023-07-20T07:53:13;2.70;;;2.50;;
51925;SDS011;37952;51.938;15.480;2023-07-20T07:56:16;2.70;;;2.60;;
51925;SDS011;37952;51.938;15.480;2023-07-20T07:59:19;2.20;;;2.10;;
51925;SDS011;37952;51.938;15.480;2023-07-20T08:02:22;1.90;;;1.80;;
51925;SDS011;37952;51.938;15.480;2023-07-20T08:05:25;2.40;;;2.30;;
51925;SDS011;37952;51.938;15.480;2023-07-20T08:08:28;5.00;;;2.60;;
51925;SDS011;37952;51.938;15.480;2023-07-20T08:11:33;3.10;;;2.10;;
51925;SDS011;37952;51.938;15.480;2023-07-20T08:14:36;2.10;;;2.00;;
51925;SDS011;37952;51.938;15.480;2023-07-20T08:17:39;2.10;;;2.00;;
51925;SDS011;37952;51.938;15.480;2023-07-20T08:20:45;2.00;;;1.90;;
51925;SDS011;37952;51.938;15.480;2023-07-20T08:23:48;3.10;;;1.90;;
51925;SDS011;37952;51.938;15.480;2023-07-20T08:26:51;1.80;;;1.60;;
51925;SDS011;37952;51.938;15.480;2023-07-20T08:29:54;1.80;;;1.80;;
51925;SDS011;37952;51.938;15.480;2023-07-20T08:32:59;1.80;;;1.70;;
51925;SDS011;37952;51.938;15.480;2023-07-20T08:36:02;2.40;;;1.90;;
51925;SDS011;37952;51.938;15.480;2023-07-20T08:39:06;1.60;;;1.20;;
51925;SDS011;37952;51.938;15.480;2023-07-20T08:42:10;3.30;;;1.30;;
51925;SDS011;37952;51.938;15.480;2023-07-20T08:45:17;1.80;;;1.70;;
51925;SDS011;37952;51.938;15.480;2023-07-20T08:48:20;1.50;;;1.40;;
51925;SDS011;37952;51.938;15.480;2023-07-20T08:51:24;1.10;;;1.10;;
51925;SDS011;37952;51.938;15.480;2023-07-20T08:54:29;2.10;;;1.00;;
51925;SDS011;37952;51.938;15.480;2023-07-20T08:57:35;1.50;;;1.40;;
51925;SDS011;37952;51.938;15.480;2023-07-20T09:00:39;1.20;;;1.20;;
51925;SDS011;37952;51.938;15.480;2023-07-20T09:03:45;2.00;;;1.10;;
51925;SDS011;37952;51.938;15.480;2023-07-20T09:06:49;1.40;;;1.30;;
51925;SDS011;37952;51.938;15.480;2023-07-20T09:09:52;0.90;;;0.80;;
51925;SDS011;37952;51.938;15.480;2023-07-20T09:12:59;1.00;;;0.90;;
51925;SDS011;37952;51.938;15.480;2023-07-20T09:16:02;1.10;;;0.90;;
51925;SDS011;37952;51.938;15.480;2023-07-20T09:19:07;1.70;;;1.10;;
51925;SDS011;37952;51.938;15.480;2023-07-20T09:22:11;2.20;;;0.90;;
51925;SDS011;37952;51.938;15.480;2023-07-20T09:25:14;1.10;;;1.00;;
51925;SDS011;37952;51.938;15.480;2023-07-20T09:28:19;1.40;;;1.30;;
51925;SDS011;37952;51.938;15.480;2023-07-20T09:31:22;1.10;;;1.00;;
51925;SDS011;37952;51.938;15.480;2023-07-20T09:34:25;1.10;;;1.10;;
51925;SDS011;37952;51.938;15.480;2023-07-20T09:37:31;1.90;;;1.50;;
51925;SDS011;37952;51.938;15.480;2023-07-20T09:40:39;2.80;;;1.60;;
51925;SDS011;37952;51.938;15.480;2023-07-20T09:43:45;2.80;;;1.50;;
51925;SDS011;37952;51.938;15.480;2023-07-20T09:46:49;1.70;;;1.60;;
51925;SDS011;37952;51.938;15.480;2023-07-20T09:49:57;1.70;;;1.60;;
51925;SDS011;37952;51.938;15.480;2023-07-20T09:53:05;1.80;;;1.70;;
51925;SDS011;37952;51.938;15.480;2023-07-20T09:56:12;1.90;;;1.80;;
51925;SDS011;37952;51.938;15.480;2023-07-20T09:59:18;1.60;;;1.50;;
51925;SDS011;37952;51.938;15.480;2023-07-20T10:02:23;2.20;;;2.10;;
51925;SDS011;37952;51.938;15.480;2023-07-20T10:05:28;1.50;;;1.40;;
51925;SDS011;37952;51.938;15.480;2023-07-20T10:08:39;2.10;;;1.90;;
51925;SDS011;37952;51.938;15.480;2023-07-20T10:11:49;1.70;;;1.60;;
51925;SDS011;37952;51.938;15.480;2023-07-20T10:15:11;1.70;;;1.60;;
51925;SDS011;37952;51.938;15.480;2023-07-20T10:21:59;3.70;;;1.60;;
51925;SDS011;37952;51.938;15.480;2023-07-20T10:25:06;3.40;;;1.60;;
51925;SDS011;37952;51.938;15.480;2023-07-20T10:28:10;1.50;;;1.50;;
51925;SDS011;37952;51.938;15.480;2023-07-20T10:31:13;1.90;;;1.70;;
51925;SDS011;37952;51.938;15.480;2023-07-20T10:34:18;1.50;;;1.40;;
51925;SDS011;37952;51.938;15.480;2023-07-20T10:37:45;1.60;;;1.50;;
51925;SDS011;37952;51.938;15.480;2023-07-20T10:40:55;1.80;;;1.70;;
51925;SDS011;37952;51.938;15.480;2023-07-20T10:44:00;1.60;;;1.50;;
51925;SDS011;37952;51.938;15.480;2023-07-20T10:47:11;1.90;;;1.70;;
51925;SDS011;37952;51.938;15.480;2023-07-20T10:50:15;1.30;;;1.20;;
51925;SDS011;37952;51.938;15.480;2023-07-20T10:53:18;2.50;;;1.30;;
51925;SDS011;37952;51.938;15.480;2023-07-20T10:56:22;1.10;;;1.10;;
51925;SDS011;37952;51.938;15.480;2023-07-20T11:02:46;4.60;;;1.40;;
51925;SDS011;37952;51.938;15.480;2023-07-20T11:08:56;0.90;;;0.90;;
51925;SDS011;37952;51.938;15.480;2023-07-20T11:12:10;1.10;;;0.90;;
51925;SDS011;37952;51.938;15.480;2023-07-20T11:15:16;1.00;;;0.90;;
51925;SDS011;37952;51.938;15.480;2023-07-20T11:18:19;1.80;;;0.60;;
51925;SDS011;37952;51.938;15.480;2023-07-20T11:21:23;0.80;;;0.70;;
51925;SDS011;37952;51.938;15.480;2023-07-20T11:24:26;0.70;;;0.70;;
51925;SDS011;37952;51.938;15.480;2023-07-20T11:27:30;0.80;;;0.80;;
51925;SDS011;37952;51.938;15.480;2023-07-20T11:30:33;1.40;;;1.00;;
51925;SDS011;37952;51.938;15.480;2023-07-20T11:33:38;1.60;;;1.00;;
51925;SDS011;37952;51.938;15.480;2023-07-20T11:36:41;1.30;;;1.20;;
51925;SDS011;37952;51.938;15.480;2023-07-20T11:39:48;1.00;;;1.00;;
51925;SDS011;37952;51.938;15.480;2023-07-20T11:42:50;2.10;;;1.40;;
51925;SDS011;37952;51.938;15.480;2023-07-20T11:45:57;0.90;;;0.90;;
51925;SDS011;37952;51.938;15.480;2023-07-20T11:49:00;1.20;;;0.90;;
51925;SDS011;37952;51.938;15.480;2023-07-20T11:52:07;0.80;;;0.80;;
51925;SDS011;37952;51.938;15.480;2023-07-20T11:55:11;0.70;;;0.70;;
51925;SDS011;37952;51.938;15.480;2023-07-20T11:58:15;0.80;;;0.80;;
51925;SDS011;37952;51.938;15.480;2023-07-20T12:01:19;0.80;;;0.80;;
51925;SDS011;37952;51.938;15.480;2023-07-20T12:04:23;2.50;;;0.90;;
51925;SDS011;37952;51.938;15.480;2023-07-20T12:07:27;1.00;;;0.90;;
51925;SDS011;37952;51.938;15.480;2023-07-20T12:10:31;0.80;;;0.80;;
51925;SDS011;37952;51.938;15.480;2023-07-20T12:13:38;0.90;;;0.90;;
51925;SDS011;37952;51.938;15.480;2023-07-20T12:16:53;0.70;;;0.70;;
51925;SDS011;37952;51.938;15.480;2023-07-20T12:19:57;0.70;;;0.70;;
51925;SDS011;37952;51.938;15.480;2023-07-20T12:23:02;0.70;;;0.60;;
51925;SDS011;37952;51.938;15.480;2023-07-20T12:26:08;2.90;;;0.80;;
51925;SDS011;37952;51.938;15.480;2023-07-20T12:29:12;0.70;;;0.60;;
51925;SDS011;37952;51.938;15.480;2023-07-20T12:32:15;1.40;;;0.60;;
51925;SDS011;37952;51.938;15.480;2023-07-20T12:35:18;2.60;;;0.60;;
51925;SDS011;37952;51.938;15.480;2023-07-20T12:38:21;0.60;;;0.60;;
51925;SDS011;37952;51.938;15.480;2023-07-20T12:41:23;0.80;;;0.80;;
51925;SDS011;37952;51.938;15.480;2023-07-20T12:44:26;0.80;;;0.80;;
51925;SDS011;37952;51.938;15.480;2023-07-20T12:47:29;0.80;;;0.80;;
51925;SDS011;37952;51.938;15.480;2023-07-20T12:50:32;1.20;;;0.70;;
51925;SDS011;37952;51.938;15.480;2023-07-20T12:53:35;0.50;;;0.50;;
51925;SDS011;37952;51.938;15.480;2023-07-20T12:56:38;0.60;;;0.60;;
51925;SDS011;37952;51.938;15.480;2023-07-20T12:59:44;0.60;;;0.50;;
51925;SDS011;37952;51.938;15.480;2023-07-20T13:02:47;0.50;;;0.50;;
51925;SDS011;37952;51.938;15.480;2023-07-20T13:05:51;0.60;;;0.60;;
51925;SDS011;37952;51.938;15.480;2023-07-20T13:08:56;0.70;;;0.70;;
51925;SDS011;37952;51.938;15.480;2023-07-20T13:12:00;0.60;;;0.60;;
51925;SDS011;37952;51.938;15.480;2023-07-20T13:15:04;0.50;;;0.50;;
51925;SDS011;37952;51.938;15.480;2023-07-20T13:18:09;0.40;;;0.40;;
51925;SDS011;37952;51.938;15.480;2023-07-20T13:21:12;0.40;;;0.40;;
51925;SDS011;37952;51.938;15.480;2023-07-20T13:24:15;0.50;;;0.40;;
51925;SDS011;37952;51.938;15.480;2023-07-20T13:27:18;1.10;;;0.50;;
51925;SDS011;37952;51.938;15.480;2023-07-20T13:30:22;0.50;;;0.50;;
51925;SDS011;37952;51.938;15.480;2023-07-20T13:33:25;0.50;;;0.50;;
51925;SDS011;37952;51.938;15.480;2023-07-20T13:36:30;0.40;;;0.40;;
51925;SDS011;37952;51.938;15.480;2023-07-20T13:39:33;0.40;;;0.40;;
51925;SDS011;37952;51.938;15.480;2023-07-20T13:42:36;0.30;;;0.30;;
51925;SDS011;37952;51.938;15.480;2023-07-20T13:45:40;0.70;;;0.40;;
51925;SDS011;37952;51.938;15.480;2023-07-20T13:48:43;1.20;;;0.50;;
51925;SDS011;37952;51.938;15.480;2023-07-20T13:51:46;1.10;;;0.30;;
51925;SDS011;37952;51.938;15.480;2023-07-20T13:55:09;0.30;;;0.30;;
51925;SDS011;37952;51.938;15.480;2023-07-20T13:58:12;0.50;;;0.40;;
51925;SDS011;37952;51.938;15.480;2023-07-20T14:01:15;0.50;;;0.30;;
51925;SDS011;37952;51.938;15.480;2023-07-20T14:04:31;5.00;;;0.40;;
51925;SDS011;37952;51.938;15.480;2023-07-20T14:07:34;0.40;;;0.40;;
51925;SDS011;37952;51.938;15.480;2023-07-20T14:10:37;0.30;;;0.20;;
51925;SDS011;37952;51.938;15.480;2023-07-20T14:14:00;0.90;;;0.40;;
51925;SDS011;37952;51.938;15.480;2023-07-20T14:17:03;0.90;;;0.70;;
51925;SDS011;37952;51.938;15.480;2023-07-20T14:20:06;2.60;;;0.60;;
51925;SDS011;37952;51.938;15.480;2023-07-20T14:23:13;1.30;;;0.90;;
51925;SDS011;37952;51.938;15.480;2023-07-20T14:26:16;0.70;;;0.40;;
51925;SDS011;37952;51.938;15.480;2023-07-20T14:29:19;1.40;;;1.00;;
51925;SDS011;37952;51.938;15.480;2023-07-20T14:32:22;2.30;;;1.30;;
51925;SDS011;37952;51.938;15.480;2023-07-20T14:35:25;0.70;;;0.60;;
51925;SDS011;37952;51.938;15.480;2023-07-20T14:38:30;0.50;;;0.50;;
51925;SDS011;37952;51.938;15.480;2023-07-20T14:41:33;1.50;;;0.40;;
51925;SDS011;37952;51.938;15.480;2023-07-20T14:44:37;2.10;;;0.30;;
51925;SDS011;37952;51.938;15.480;2023-07-20T14:47:39;0.40;;;0.30;;
51925;SDS011;37952;51.938;15.480;2023-07-20T14:50:42;0.30;;;0.30;;
51925;SDS011;37952;51.938;15.480;2023-07-20T14:53:48;0.30;;;0.30;;
51925;SDS011;37952;51.938;15.480;2023-07-20T14:56:50;2.00;;;0.30;;
51925;SDS011;37952;51.938;15.480;2023-07-20T14:59:58;5.00;;;0.30;;
51925;SDS011;37952;51.938;15.480;2023-07-20T15:03:01;0.70;;;0.40;;
51925;SDS011;37952;51.938;15.480;2023-07-20T15:06:04;2.60;;;0.30;;
51925;SDS011;37952;51.938;15.480;2023-07-20T15:09:14;0.40;;;0.20;;
51925;SDS011;37952;51.938;15.480;2023-07-20T15:12:17;0.60;;;0.30;;
51925;SDS011;37952;51.938;15.480;2023-07-20T15:15:20;0.30;;;0.30;;
51925;SDS011;37952;51.938;15.480;2023-07-20T15:18:23;4.20;;;0.30;;
51925;SDS011;37952;51.938;15.480;2023-07-20T15:21:45;0.30;;;0.30;;
51925;SDS011;37952;51.938;15.480;2023-07-20T15:24:48;0.40;;;0.40;;
51925;SDS011;37952;51.938;15.480;2023-07-20T15:27:54;0.20;;;0.20;;
51925;SDS011;37952;51.938;15.480;2023-07-20T15:30:59;0.30;;;0.30;;
51925;SDS011;37952;51.938;15.480;2023-07-20T15:34:03;0.30;;;0.30;;
51925;SDS011;37952;51.938;15.480;2023-07-20T15:37:06;0.40;;;0.40;;
51925;SDS011;37952;51.938;15.480;2023-07-20T15:40:09;0.30;;;0.30;;
51925;SDS011;37952;51.938;15.480;2023-07-20T15:43:12;1.10;;;0.30;;
51925;SDS011;37952;51.938;15.480;2023-07-20T15:49:21;0.40;;;0.30;;
51925;SDS011;37952;51.938;15.480;2023-07-20T15:52:24;0.30;;;0.30;;
51925;SDS011;37952;51.938;15.480;2023-07-20T15:55:27;0.40;;;0.40;;
51925;SDS011;37952;51.938;15.480;2023-07-20T15:58:30;3.90;;;0.20;;
51925;SDS011;37952;51.938;15.480;2023-07-20T16:01:33;0.20;;;0.20;;
51925;SDS011;37952;51.938;15.480;2023-07-20T16:04:39;0.60;;;0.30;;
51925;SDS011;37952;51.938;15.480;2023-07-20T16:07:42;0.20;;;0.20;;
51925;SDS011;37952;51.938;15.480;2023-07-20T16:10:48;0.30;;;0.30;;
51925;SDS011;37952;51.938;15.480;2023-07-20T16:13:52;0.30;;;0.30;;
51925;SDS011;37952;51.938;15.480;2023-07-20T16:16:55;0.30;;;0.30;;
51925;SDS011;37952;51.938;15.480;2023-07-20T16:19:58;0.30;;;0.30;;
51925;SDS011;37952;51.938;15.480;2023-07-20T16:23:01;0.30;;;0.30;;
51925;SDS011;37952;51.938;15.480;2023-07-20T16:26:08;1.60;;;0.20;;
51925;SDS011;37952;51.938;15.480;2023-07-20T16:29:11;0.30;;;0.20;;
51925;SDS011;37952;51.938;15.480;2023-07-20T16:32:16;0.30;;;0.20;;
51925;SDS011;37952;51.938;15.480;2023-07-20T16:35:19;1.00;;;0.30;;
51925;SDS011;37952;51.938;15.480;2023-07-20T16:38:42;0.20;;;0.20;;
51925;SDS011;37952;51.938;15.480;2023-07-20T16:41:46;0.20;;;0.20;;
51925;SDS011;37952;51.938;15.480;2023-07-20T16:44:51;0.30;;;0.30;;
51925;SDS011;37952;51.938;15.480;2023-07-20T16:47:55;2.30;;;0.20;;
51925;SDS011;37952;51.938;15.480;2023-07-20T16:50:59;0.30;;;0.20;;
51925;SDS011;37952;51.938;15.480;2023-07-20T16:54:02;0.20;;;0.20;;
51925;SDS011;37952;51.938;15.480;2023-07-20T16:57:08;0.30;;;0.20;;
51925;SDS011;37952;51.938;15.480;2023-07-20T17:00:12;0.30;;;0.20;;
51925;SDS011;37952;51.938;15.480;2023-07-20T17:03:18;0.20;;;0.20;;
51925;SDS011;37952;51.938;15.480;2023-07-20T17:06:21;0.40;;;0.40;;
51925;SDS011;37952;51.938;15.480;2023-07-20T17:09:23;0.20;;;0.20;;
51925;SDS011;37952;51.938;15.480;2023-07-20T17:12:26;0.80;;;0.80;;
51925;SDS011;37952;51.938;15.480;2023-07-20T17:15:30;0.40;;;0.40;;
51925;SDS011;37952;51.938;15.480;2023-07-20T17:18:33;0.80;;;0.40;;
51925;SDS011;37952;51.938;15.480;2023-07-20T17:21:37;0.30;;;0.30;;
51925;SDS011;37952;51.938;15.480;2023-07-20T17:24:40;0.20;;;0.20;;
51925;SDS011;37952;51.938;15.480;2023-07-20T17:27:48;0.20;;;0.20;;
51925;SDS011;37952;51.938;15.480;2023-07-20T17:30:57;0.20;;;0.20;;
51925;SDS011;37952;51.938;15.480;2023-07-20T17:34:02;0.40;;;0.40;;
51925;SDS011;37952;51.938;15.480;2023-07-20T17:37:05;0.30;;;0.30;;
51925;SDS011;37952;51.938;15.480;2023-07-20T17:40:11;0.90;;;0.70;;
51925;SDS011;37952;51.938;15.480;2023-07-20T17:43:18;0.30;;;0.30;;
51925;SDS011;37952;51.938;15.480;2023-07-20T17:46:21;0.20;;;0.20;;
51925;SDS011;37952;51.938;15.480;2023-07-20T17:49:27;0.40;;;0.30;;
51925;SDS011;37952;51.938;15.480;2023-07-20T17:52:30;0.30;;;0.30;;
51925;SDS011;37952;51.938;15.480;2023-07-20T17:55:33;2.20;;;0.30;;
51925;SDS011;37952;51.938;15.480;2023-07-20T17:58:36;0.20;;;0.20;;
51925;SDS011;37952;51.938;15.480;2023-07-20T18:01:38;0.20;;;0.20;;
51925;SDS011;37952;51.938;15.480;2023-07-20T18:04:41;0.50;;;0.30;;
51925;SDS011;37952;51.938;15.480;2023-07-20T18:07:44;1.10;;;0.30;;
51925;SDS011;37952;51.938;15.480;2023-07-20T18:10:47;0.70;;;0.20;;
51925;SDS011;37952;51.938;15.480;2023-07-20T18:13:49;0.30;;;0.30;;
51925;SDS011;37952;51.938;15.480;2023-07-20T18:16:52;2.50;;;0.40;;
51925;SDS011;37952;51.938;15.480;2023-07-20T18:19:55;0.40;;;0.20;;
51925;SDS011;37952;51.938;15.480;2023-07-20T18:22:58;0.40;;;0.40;;
51925;SDS011;37952;51.938;15.480;2023-07-20T18:26:01;0.40;;;0.30;;
51925;SDS011;37952;51.938;15.480;2023-07-20T18:29:04;0.40;;;0.20;;
51925;SDS011;37952;51.938;15.480;2023-07-20T18:32:07;3.00;;;0.20;;
51925;SDS011;37952;51.938;15.480;2023-07-20T18:35:10;0.40;;;0.20;;
51925;SDS011;37952;51.938;15.480;2023-07-20T18:38:14;0.20;;;0.20;;
51925;SDS011;37952;51.938;15.480;2023-07-20T18:41:17;0.20;;;0.20;;
51925;SDS011;37952;51.938;15.480;2023-07-20T18:44:19;0.30;;;0.30;;
51925;SDS011;37952;51.938;15.480;2023-07-20T18:47:22;0.40;;;0.20;;
51925;SDS011;37952;51.938;15.480;2023-07-20T18:50:26;0.20;;;0.20;;
51925;SDS011;37952;51.938;15.480;2023-07-20T18:53:31;0.30;;;0.30;;